createdAt,value
2019-03-01T00:00:13.190Z,99254.86
2019-03-01T00:02:45.862Z,99258.75
2019-03-01T00:05:50.319Z,99259.33
2019-03-01T00:08:41.408Z,99262.89
2019-03-01T00:11:42.700Z,99259.87
2019-03-01T00:14:42.854Z,99261.95
2019-03-01T00:17:42.598Z,99256.92
2019-03-01T00:20:46.790Z,99260.45
2019-03-01T00:23:54.598Z,99253.18
2019-03-01T00:27:15.657Z,99253.36
2019-03-01T00:30:13.930Z,99259.44
2019-03-01T00:33:08.930Z,99251.17
2019-03-01T00:36:32.850Z,99255.98
2019-03-01T00:39:54.613Z,99256.02
2019-03-01T00:42:52.828Z,99254.94
2019-03-01T00:45:24.229Z,99252.20
2019-03-01T00:47:55.470Z,99256.99
2019-03-01T00:50:26.713Z,99253.18
2019-03-01T00:52:58.113Z,99252.42
2019-03-01T00:55:29.568Z,99241.78
2019-03-01T00:58:00.958Z,99251.02
2019-03-01T01:00:35.750Z,99244.69
2019-03-01T01:03:07.279Z,99246.05
2019-03-01T01:05:38.622Z,99242.64
2019-03-01T01:08:09.953Z,99241.05
2019-03-01T01:10:41.350Z,99242.78
2019-03-01T01:13:12.759Z,99237.28
2019-03-01T01:15:44.325Z,99230.80
2019-03-01T01:18:15.904Z,99228.28
2019-03-01T01:20:48.101Z,99229.28
2019-03-01T01:23:19.440Z,99227.23
2019-03-01T01:25:50.738Z,99228.23
2019-03-01T01:28:22.111Z,99226.11
2019-03-01T01:30:53.640Z,99226.05
2019-03-01T01:33:25.070Z,99226.05
2019-03-01T01:35:57.099Z,99229.03
2019-03-01T01:38:28.619Z,99226.88
2019-03-01T01:40:59.738Z,99228.13
2019-03-01T01:43:31.188Z,99225.08
2019-03-01T01:46:02.451Z,99225.80
2019-03-01T01:48:33.858Z,99226.23
2019-03-01T01:51:05.442Z,99224.19
2019-03-01T01:53:36.834Z,99223.45
2019-03-01T01:56:08.190Z,99224.75
2019-03-01T01:58:39.613Z,99224.35
2019-03-01T02:01:10.958Z,99222.23
2019-03-01T02:03:42.212Z,99223.66
2019-03-01T02:06:13.633Z,99224.09
2019-03-01T02:08:44.940Z,99218.98
2019-03-01T02:11:16.309Z,99225.16
2019-03-01T02:13:47.848Z,99221.34
2019-03-01T02:16:19.148Z,99226.16
2019-03-01T02:18:57.416Z,99229.17
2019-03-01T02:21:23.428Z,99238.59
2019-03-01T02:23:54.978Z,99240.61
2019-03-01T02:26:26.168Z,99239.66
2019-03-01T02:28:57.703Z,99229.66
2019-03-01T02:31:29.093Z,99229.56
2019-03-01T02:34:00.310Z,99221.84
2019-03-01T02:36:31.673Z,99228.30
2019-03-01T02:39:04.211Z,99235.20
2019-03-01T02:41:36.937Z,99243.39
2019-03-01T02:44:09.102Z,99243.39
2019-03-01T02:46:39.293Z,99240.28
2019-03-01T02:49:10.558Z,99251.42
2019-03-01T02:51:42.067Z,99251.36
2019-03-01T02:54:13.391Z,99243.95
2019-03-01T02:56:44.820Z,99244.81
2019-03-01T02:59:16.001Z,99249.53
2019-03-01T03:01:47.439Z,99251.32
2019-03-01T03:04:18.699Z,99251.28
2019-03-01T03:07:05.062Z,99249.89
2019-03-01T03:09:36.323Z,99253.77
2019-03-01T03:12:07.671Z,99247.70
2019-03-01T03:14:39.005Z,99253.70
2019-03-01T03:17:10.336Z,99249.49
2019-03-01T03:19:41.580Z,99251.69
2019-03-01T03:22:12.872Z,99247.44
2019-03-01T03:24:44.078Z,99245.42
2019-03-01T03:27:15.852Z,99252.31
2019-03-01T03:29:47.248Z,99252.39
2019-03-01T03:32:18.522Z,99260.08
2019-03-01T03:34:49.873Z,99254.02
2019-03-01T03:37:21.152Z,99254.11
2019-03-01T03:39:52.571Z,99250.70
2019-03-01T03:42:24.292Z,99254.71
2019-03-01T03:44:55.612Z,99259.05
2019-03-01T03:47:27.121Z,99263.83
2019-03-01T03:50:00.021Z,99268.14
2019-03-01T03:52:31.428Z,99265.66
2019-03-01T03:55:02.630Z,99270.83
2019-03-01T03:57:34.071Z,99270.83
2019-03-01T04:00:06.106Z,99269.91
2019-03-01T04:02:36.390Z,99262.97
2019-03-01T04:05:08.119Z,99269.87
2019-03-01T04:07:39.548Z,99263.40
2019-03-01T04:10:11.342Z,99262.58
2019-03-01T04:12:42.693Z,99269.14
2019-03-01T04:15:14.108Z,99267.95
2019-03-01T04:17:45.401Z,99268.87
2019-03-01T04:20:17.852Z,99265.02
2019-03-01T04:22:49.120Z,99263.36
2019-03-01T04:25:20.475Z,99258.25
2019-03-01T04:27:53.401Z,99253.24
2019-03-01T04:30:25.002Z,99265.00
2019-03-01T04:32:56.309Z,99261.25
2019-03-01T04:35:27.501Z,99270.42
2019-03-01T04:37:58.858Z,99266.70
2019-03-01T04:40:30.078Z,99271.04
2019-03-01T04:43:01.421Z,99270.27
2019-03-01T04:45:32.661Z,99268.52
2019-03-01T04:48:04.110Z,99279.32
2019-03-01T04:50:35.520Z,99276.27
2019-03-01T04:53:06.789Z,99283.17
2019-03-01T04:55:38.314Z,99283.25
2019-03-01T04:58:09.607Z,99275.96
2019-03-01T05:00:40.950Z,99279.75
2019-03-01T05:03:12.390Z,99280.64
2019-03-01T05:05:43.902Z,99278.55
2019-03-01T05:08:15.312Z,99280.70
2019-03-01T05:10:46.640Z,99281.62
2019-03-01T05:13:17.933Z,99285.56
2019-03-01T05:15:49.190Z,99288.95
2019-03-01T05:18:20.479Z,99288.95
2019-03-01T05:20:52.121Z,99293.63
2019-03-01T05:23:23.406Z,99301.81
2019-03-01T05:25:54.618Z,99297.50
2019-03-01T05:28:25.970Z,99302.13
2019-03-01T05:30:57.410Z,99300.83
2019-03-01T05:33:28.528Z,99300.03
2019-03-01T05:35:59.818Z,99306.89
2019-03-01T05:38:34.336Z,99312.47
2019-03-01T05:41:05.688Z,99318.06
2019-03-01T05:43:36.950Z,99318.06
2019-03-01T05:46:08.470Z,99325.67
2019-03-01T05:48:39.781Z,99329.50
2019-03-01T05:51:11.300Z,99330.30
2019-03-01T05:53:42.730Z,99335.44
2019-03-01T05:56:14.739Z,99334.52
2019-03-01T05:59:07.187Z,99325.44
2019-03-01T06:01:49.249Z,99335.66
2019-03-01T06:04:36.860Z,99326.15
2019-03-01T06:07:48.368Z,99327.84
2019-03-01T06:10:56.125Z,99329.45
2019-03-01T06:14:18.630Z,99329.78
2019-03-01T06:17:26.403Z,99331.36
2019-03-01T06:20:36.508Z,99331.30
2019-03-01T06:24:03.250Z,99336.34
2019-03-01T06:27:17.550Z,99336.31
2019-03-01T06:30:11.798Z,99332.03
2019-03-01T06:33:41.730Z,99336.25
2019-03-01T06:36:56.441Z,99344.75
2019-03-01T06:40:15.503Z,99339.91
2019-03-01T06:43:13.218Z,99350.59
2019-03-01T06:46:15.400Z,99347.08
2019-03-01T06:49:05.451Z,99347.14
2019-03-01T06:51:38.020Z,99350.06
2019-03-01T06:54:09.320Z,99353.82
2019-03-01T06:56:42.280Z,99353.30
2019-03-01T06:59:13.521Z,99346.33
2019-03-01T07:01:46.411Z,99352.23
2019-03-01T07:04:21.134Z,99349.61
2019-03-01T07:06:52.318Z,99348.75
2019-03-01T07:09:23.527Z,99348.61
2019-03-01T07:11:54.768Z,99345.92
2019-03-01T07:14:26.888Z,99343.08
2019-03-01T07:16:58.610Z,99347.55
2019-03-01T07:19:30.063Z,99342.80
2019-03-01T07:22:01.410Z,99345.77
2019-03-01T07:24:33.871Z,99356.39
2019-03-01T07:27:05.101Z,99349.81
2019-03-01T07:29:37.064Z,99350.02
2019-03-01T07:32:08.511Z,99346.97
2019-03-01T07:34:39.830Z,99344.63
2019-03-01T07:37:12.038Z,99348.55
2019-03-01T07:39:43.941Z,99358.52
2019-03-01T07:42:15.164Z,99348.73
2019-03-01T07:44:46.360Z,99344.80
2019-03-01T07:47:17.600Z,99349.81
2019-03-01T07:49:48.863Z,99342.55
2019-03-01T07:52:20.471Z,99341.02
2019-03-01T07:54:52.935Z,99346.33
2019-03-01T07:57:25.646Z,99349.00
2019-03-01T07:59:57.233Z,99346.41
2019-03-01T08:02:28.396Z,99349.00
2019-03-01T08:05:00.013Z,99351.86
2019-03-01T08:07:32.544Z,99352.48
2019-03-01T08:10:03.921Z,99351.95
2019-03-01T08:12:38.608Z,99353.30
2019-03-01T08:15:10.112Z,99348.72
2019-03-01T08:17:42.581Z,99347.28
2019-03-01T08:20:15.313Z,99355.05
2019-03-01T08:22:49.060Z,99349.95
2019-03-01T08:25:23.717Z,99354.00
2019-03-01T08:27:53.045Z,99351.64
2019-03-01T08:30:24.274Z,99346.98
2019-03-01T08:32:55.488Z,99353.45
2019-03-01T08:35:28.271Z,99361.80
2019-03-01T08:37:59.731Z,99357.56
2019-03-01T08:40:30.891Z,99365.95
2019-03-01T08:43:02.192Z,99364.91
2019-03-01T08:45:33.684Z,99369.41
2019-03-01T08:48:05.030Z,99367.59
2019-03-01T08:50:37.512Z,99357.73
2019-03-01T08:53:11.451Z,99361.58
2019-03-01T08:55:42.562Z,99361.40
2019-03-01T08:58:13.850Z,99358.38
2019-03-01T09:00:45.739Z,99359.22
2019-03-01T09:03:23.138Z,99363.45
2019-03-01T09:05:55.740Z,99362.65
2019-03-01T09:08:28.011Z,99357.94
2019-03-01T09:10:59.803Z,99357.34
2019-03-01T09:13:31.588Z,99353.37
2019-03-01T09:16:03.387Z,99349.82
2019-03-01T09:18:34.882Z,99347.90
2019-03-01T09:21:12.338Z,99345.22
2019-03-01T09:23:39.904Z,99349.73
2019-03-01T09:26:11.371Z,99347.78
2019-03-01T09:28:42.640Z,99349.70
2019-03-01T09:31:13.978Z,99346.98
2019-03-01T09:33:45.080Z,99337.66
2019-03-01T09:36:23.412Z,99345.08
2019-03-01T09:38:54.791Z,99337.06
2019-03-01T09:41:26.190Z,99334.41
2019-03-01T09:43:59.618Z,99337.28
2019-03-01T09:46:30.449Z,99341.29
2019-03-01T09:49:01.741Z,99341.40
2019-03-01T09:51:33.150Z,99337.55
2019-03-01T09:54:06.436Z,99335.64
2019-03-01T09:56:37.831Z,99341.90
2019-03-01T09:59:09.198Z,99350.25
2019-03-01T10:01:40.630Z,99343.88
2019-03-01T10:04:11.944Z,99337.27
2019-03-01T10:06:43.251Z,99332.80
2019-03-01T10:09:14.317Z,99340.63
2019-03-01T10:11:45.650Z,99342.55
2019-03-01T10:14:16.869Z,99337.50
2019-03-01T10:16:48.265Z,99333.75
2019-03-01T10:19:19.909Z,99335.12
2019-03-01T10:21:51.178Z,99329.45
2019-03-01T10:24:22.448Z,99332.33
2019-03-01T10:26:54.191Z,99330.70
2019-03-01T10:29:25.461Z,99334.89
2019-03-01T10:31:56.608Z,99331.73
2019-03-01T10:34:27.781Z,99329.77
2019-03-01T10:36:58.968Z,99331.75
2019-03-01T10:39:30.153Z,99331.91
2019-03-01T10:42:01.391Z,99328.52
2019-03-01T10:44:32.389Z,99324.71
2019-03-01T10:47:03.478Z,99327.29
2019-03-01T10:49:34.572Z,99334.23
2019-03-01T10:52:05.778Z,99328.10
2019-03-01T10:54:37.042Z,99331.61
2019-03-01T10:57:08.331Z,99331.20
2019-03-01T10:59:39.648Z,99328.45
2019-03-01T11:02:11.260Z,99326.62
2019-03-01T11:04:42.600Z,99330.65
2019-03-01T11:07:13.789Z,99328.32
2019-03-01T11:09:45.119Z,99321.81
2019-03-01T11:12:16.428Z,99325.38
2019-03-01T11:14:47.600Z,99327.30
2019-03-01T11:17:18.860Z,99327.67
2019-03-01T11:19:50.030Z,99331.44
2019-03-01T11:22:21.273Z,99331.37
2019-03-01T11:24:52.548Z,99330.66
2019-03-01T11:27:24.118Z,99325.91
2019-03-01T11:29:55.378Z,99321.36
2019-03-01T11:32:26.618Z,99324.53
2019-03-01T11:34:57.844Z,99321.89
2019-03-01T11:37:29.191Z,99324.20
2019-03-01T11:40:00.378Z,99325.21
2019-03-01T11:42:31.638Z,99323.37
2019-03-01T11:45:02.832Z,99319.20
2019-03-01T11:47:34.289Z,99317.06
2019-03-01T11:50:06.609Z,99304.09
2019-03-01T11:52:38.048Z,99297.94
2019-03-01T11:55:09.261Z,99301.87
2019-03-01T11:57:40.519Z,99297.22
2019-03-01T12:00:15.011Z,99290.21
2019-03-01T12:02:46.723Z,99293.41
2019-03-01T12:05:17.938Z,99287.01
2019-03-01T12:07:49.130Z,99290.19
2019-03-01T12:10:21.899Z,99287.63
2019-03-01T12:12:53.214Z,99282.91
2019-03-01T12:15:24.630Z,99283.14
2019-03-01T12:17:55.873Z,99291.30
2019-03-01T12:20:27.569Z,99287.90
2019-03-01T12:22:58.951Z,99287.90
2019-03-01T12:25:30.440Z,99279.79
2019-03-01T12:28:01.678Z,99291.27
2019-03-01T12:30:33.520Z,99287.80
2019-03-01T12:33:04.823Z,99282.09
2019-03-01T12:35:36.260Z,99289.77
2019-03-01T12:38:07.542Z,99289.12
2019-03-01T12:40:38.890Z,99292.50
2019-03-01T12:43:10.039Z,99291.40
2019-03-01T12:45:41.490Z,99290.80
2019-03-01T12:48:12.778Z,99288.25
2019-03-01T12:50:44.139Z,99300.61
2019-03-01T12:53:15.441Z,99295.06
2019-03-01T12:55:46.750Z,99285.21
2019-03-01T12:58:19.652Z,99288.91
2019-03-01T13:00:51.160Z,99289.45
2019-03-01T13:03:22.637Z,99289.77
2019-03-01T13:05:53.919Z,99294.20
2019-03-01T13:08:25.248Z,99292.70
2019-03-01T13:10:56.631Z,99291.06
2019-03-01T13:13:27.962Z,99299.03
2019-03-01T13:15:59.281Z,99289.48
2019-03-01T13:18:30.631Z,99296.20
2019-03-01T13:21:03.488Z,99299.35
2019-03-01T13:23:37.523Z,99302.16
2019-03-01T13:26:08.138Z,99295.91
2019-03-01T13:28:39.481Z,99304.12
2019-03-01T13:31:11.480Z,99300.37
2019-03-01T13:33:43.520Z,99302.03
2019-03-01T13:36:15.109Z,99301.05
2019-03-01T13:38:46.400Z,99307.63
2019-03-01T13:41:19.290Z,99314.72
2019-03-01T13:43:50.370Z,99322.22
2019-03-01T13:46:21.711Z,99320.82
2019-03-01T13:48:54.138Z,99312.92
2019-03-01T13:51:25.979Z,99315.60
2019-03-01T13:53:57.510Z,99322.08
2019-03-01T13:56:28.941Z,99326.91
2019-03-01T13:59:02.899Z,99320.92
2019-03-01T14:01:34.358Z,99328.20
2019-03-01T14:04:05.603Z,99325.55
2019-03-01T14:06:37.038Z,99329.84
2019-03-01T14:09:14.601Z,99337.45
2019-03-01T14:11:45.867Z,99332.29
2019-03-01T14:14:17.372Z,99328.78
2019-03-01T14:16:48.831Z,99329.22
2019-03-01T14:19:20.252Z,99325.80
2019-03-01T14:21:51.521Z,99327.58
2019-03-01T14:24:25.997Z,99329.78
2019-03-01T14:26:55.831Z,99330.48
2019-03-01T14:29:27.201Z,99337.52
2019-03-01T14:31:58.603Z,99328.24
2019-03-01T14:34:29.892Z,99327.56
2019-03-01T14:37:01.121Z,99324.69
2019-03-01T14:39:32.573Z,99332.19
2019-03-01T14:42:07.071Z,99337.86
2019-03-01T14:44:38.178Z,99333.86
2019-03-01T14:47:09.478Z,99325.20
2019-03-01T14:49:40.709Z,99324.24
2019-03-01T14:52:11.950Z,99334.80
2019-03-01T14:54:45.120Z,99335.71
2019-03-01T14:57:21.752Z,99347.58
2019-03-01T15:00:31.933Z,99348.51
2019-03-01T15:03:38.022Z,99349.95
2019-03-01T15:06:10.580Z,99355.06
2019-03-01T15:08:44.153Z,99364.77
2019-03-01T15:11:18.220Z,99363.38
2019-03-01T15:13:50.709Z,99366.16
2019-03-01T15:16:21.996Z,99365.94
2019-03-01T15:18:53.524Z,99370.73
2019-03-01T15:21:25.130Z,99367.83
2019-03-01T15:24:00.131Z,99371.41
2019-03-01T15:26:29.432Z,99371.19
2019-03-01T15:29:00.758Z,99375.09
2019-03-01T15:31:32.180Z,99375.59
2019-03-01T15:34:03.348Z,99379.14
2019-03-01T15:36:34.591Z,99377.97
2019-03-01T15:39:08.472Z,99370.07
2019-03-01T15:41:42.143Z,99376.75
2019-03-01T15:44:15.291Z,99377.42
2019-03-01T15:46:49.754Z,99380.56
2019-03-01T15:49:23.623Z,99379.89
2019-03-01T15:51:53.270Z,99373.13
2019-03-01T15:54:23.509Z,99375.30
2019-03-01T15:56:55.789Z,99371.16
2019-03-01T15:59:27.243Z,99381.54
2019-03-01T16:01:58.720Z,99379.13
2019-03-01T16:04:30.477Z,99387.14
2019-03-01T16:07:03.380Z,99392.08
2019-03-01T16:09:34.620Z,99395.53
2019-03-01T16:12:05.808Z,99392.70
2019-03-01T16:14:37.130Z,99397.27
2019-03-01T16:17:09.541Z,99399.50
2019-03-01T16:19:41.822Z,99395.75
2019-03-01T16:22:11.941Z,99397.91
2019-03-01T16:24:45.006Z,99404.56
2019-03-01T16:27:16.953Z,99402.48
2019-03-01T16:29:48.258Z,99404.77
2019-03-01T16:32:19.749Z,99411.42
2019-03-01T16:34:52.654Z,99410.30
2019-03-01T16:37:26.061Z,99407.88
2019-03-01T16:40:00.110Z,99414.48
2019-03-01T16:42:38.227Z,99417.64
2019-03-01T16:45:04.130Z,99418.30
2019-03-01T16:47:38.231Z,99419.32
2019-03-01T16:50:10.788Z,99424.10
2019-03-01T16:52:42.581Z,99434.55
2019-03-01T16:55:15.751Z,99429.90
2019-03-01T16:57:48.617Z,99435.11
2019-03-01T17:00:20.411Z,99441.15
2019-03-01T17:02:51.920Z,99446.30
2019-03-01T17:05:26.504Z,99450.58
2019-03-01T17:07:59.673Z,99448.08
2019-03-01T17:10:31.239Z,99460.11
2019-03-01T17:13:03.181Z,99463.16
2019-03-01T17:15:34.670Z,99464.14
2019-03-01T17:18:11.105Z,99467.80
2019-03-01T17:20:39.871Z,99466.69
2019-03-01T17:23:15.540Z,99470.59
2019-03-01T17:25:47.656Z,99466.42
2019-03-01T17:28:23.595Z,99463.58
2019-03-01T17:30:51.778Z,99467.55
2019-03-01T17:33:23.181Z,99468.47
2019-03-01T17:35:54.471Z,99475.77
2019-03-01T17:38:25.938Z,99478.64
2019-03-01T17:40:57.710Z,99480.23
2019-03-01T17:43:29.633Z,99483.14
2019-03-01T17:46:01.860Z,99489.06
2019-03-01T17:48:33.138Z,99495.38
2019-03-01T17:51:04.430Z,99497.48
2019-03-01T17:53:35.548Z,99501.80
2019-03-01T17:56:06.828Z,99511.63
2019-03-01T17:58:38.121Z,99510.70
2019-03-01T18:01:09.428Z,99501.67
2019-03-01T18:03:40.732Z,99500.47
2019-03-01T18:06:13.003Z,99502.75
2019-03-01T18:08:44.930Z,99510.71
2019-03-01T18:11:16.198Z,99525.08
2019-03-01T18:13:47.450Z,99521.28
2019-03-01T18:16:22.121Z,99522.63
2019-03-01T18:18:52.968Z,99522.25
2019-03-01T18:21:24.301Z,99524.92
2019-03-01T18:23:55.588Z,99529.21
2019-03-01T18:26:26.971Z,99530.45
2019-03-01T18:29:00.947Z,99535.48
2019-03-01T18:31:34.473Z,99543.11
2019-03-01T18:34:04.301Z,99540.44
2019-03-01T18:36:35.734Z,99536.94
2019-03-01T18:39:13.055Z,99536.39
2019-03-01T18:41:44.451Z,99538.89
2019-03-01T18:44:15.610Z,99539.33
2019-03-01T18:46:47.710Z,99540.19
2019-03-01T18:49:19.774Z,99547.95
2019-03-01T18:51:52.091Z,99555.48
2019-03-01T18:54:23.348Z,99553.60
2019-03-01T18:56:54.542Z,99560.20
2019-03-01T18:59:26.543Z,99563.27
2019-03-01T19:01:57.899Z,99565.43
2019-03-01T19:04:30.049Z,99565.83
2019-03-01T19:07:01.338Z,99571.39
2019-03-01T19:09:32.699Z,99574.44
2019-03-01T19:12:04.150Z,99577.88
2019-03-01T19:14:39.027Z,99580.02
2019-03-01T19:17:08.520Z,99583.55
2019-03-01T19:19:39.611Z,99581.00
2019-03-01T19:22:11.148Z,99584.00
2019-03-01T19:24:43.304Z,99583.23
2019-03-01T19:27:15.797Z,99588.97
2019-03-01T19:29:47.148Z,99601.22
2019-03-01T19:32:18.541Z,99600.07
2019-03-01T19:34:52.748Z,99613.38
2019-03-01T19:37:22.888Z,99621.93
2019-03-01T19:39:54.504Z,99624.05
2019-03-01T19:42:25.833Z,99621.47
2019-03-01T19:44:57.019Z,99627.10
2019-03-01T19:47:29.541Z,99627.63
2019-03-01T19:50:00.838Z,99631.53
2019-03-01T19:52:32.330Z,99636.77
2019-03-01T19:55:03.569Z,99649.75
2019-03-01T19:57:36.370Z,99654.09
2019-03-01T20:00:12.758Z,99655.83
2019-03-01T20:02:45.380Z,99658.91
2019-03-01T20:05:18.328Z,99661.48
2019-03-01T20:07:51.736Z,99669.30
2019-03-01T20:10:24.790Z,99677.57
2019-03-01T20:12:56.221Z,99675.44
2019-03-01T20:15:28.177Z,99675.05
2019-03-01T20:17:59.723Z,99677.19
2019-03-01T20:20:33.505Z,99678.88
2019-03-01T20:23:04.080Z,99673.71
2019-03-01T20:25:35.448Z,99676.88
2019-03-01T20:28:06.691Z,99676.88
2019-03-01T20:30:38.160Z,99680.91
2019-03-01T20:33:09.471Z,99680.63
2019-03-01T20:35:40.853Z,99689.41
2019-03-01T20:38:12.293Z,99696.91
2019-03-01T20:40:44.584Z,99697.01
2019-03-01T20:43:16.348Z,99701.50
2019-03-01T20:45:47.681Z,99694.30
2019-03-01T20:48:19.149Z,99697.36
2019-03-01T20:50:51.056Z,99699.07
2019-03-01T20:53:23.617Z,99703.41
2019-03-01T20:55:55.018Z,99703.44
2019-03-01T20:58:26.308Z,99703.11
2019-03-01T21:00:58.871Z,99708.33
2019-03-01T21:03:30.728Z,99717.42
2019-03-01T21:06:04.668Z,99715.34
2019-03-01T21:08:35.424Z,99716.66
2019-03-01T21:11:06.228Z,99720.59
2019-03-01T21:13:37.498Z,99725.79
2019-03-01T21:16:11.773Z,99725.38
2019-03-01T21:18:43.632Z,99724.98
2019-03-01T21:21:15.189Z,99728.03
2019-03-01T21:23:51.026Z,99729.83
2019-03-01T21:26:21.527Z,99728.95
2019-03-01T21:28:52.770Z,99737.63
2019-03-01T21:31:24.139Z,99745.81
2019-03-01T21:33:55.464Z,99746.28
2019-03-01T21:36:27.125Z,99747.18
2019-03-01T21:38:58.411Z,99745.09
2019-03-01T21:41:29.670Z,99747.72
2019-03-01T21:44:01.308Z,99747.72
2019-03-01T21:46:34.152Z,99740.88
2019-03-01T21:49:06.189Z,99752.95
2019-03-01T21:51:37.450Z,99757.70
2019-03-01T21:54:08.710Z,99764.67
2019-03-01T21:56:55.471Z,99773.70
2019-03-01T21:59:13.690Z,99772.91
2019-03-01T22:01:46.200Z,99778.05
2019-03-01T22:04:17.572Z,99784.12
2019-03-01T22:06:48.958Z,99793.15
2019-03-01T22:09:20.714Z,99788.04
2019-03-01T22:11:53.455Z,99797.48
2019-03-01T22:14:24.820Z,99800.93
2019-03-01T22:16:56.030Z,99800.11
2019-03-01T22:19:30.482Z,99799.28
2019-03-01T22:22:00.358Z,99801.86
2019-03-01T22:24:31.778Z,99807.04
2019-03-01T22:27:02.948Z,99802.77
2019-03-01T22:29:34.280Z,99804.51
2019-03-01T22:32:07.298Z,99807.09
2019-03-01T22:34:38.809Z,99809.24
2019-03-01T22:37:09.850Z,99807.12
2019-03-01T22:39:42.810Z,99814.42
2019-03-01T22:42:15.111Z,99809.73
2019-03-01T22:44:46.629Z,99816.61
2019-03-01T22:47:18.000Z,99821.34
2019-03-01T22:49:49.558Z,99814.91
2019-03-01T22:52:20.881Z,99825.20
2019-03-01T22:54:52.531Z,99832.53
2019-03-01T22:57:25.961Z,99839.83
2019-03-01T22:59:57.050Z,99839.82
2019-03-01T23:02:30.082Z,99837.69
2019-03-01T23:05:03.864Z,99841.54
2019-03-01T23:07:34.410Z,99852.30
2019-03-01T23:10:05.910Z,99861.28
2019-03-01T23:12:40.545Z,99861.28
2019-03-01T23:15:12.148Z,99863.44
2019-03-01T23:17:43.409Z,99864.29
2019-03-01T23:20:14.728Z,99865.60
2019-03-01T23:22:46.994Z,99867.74
2019-03-01T23:25:18.348Z,99877.17
2019-03-01T23:27:50.399Z,99877.17
2019-03-01T23:30:21.729Z,99878.87
2019-03-01T23:32:55.717Z,99874.58
2019-03-01T23:35:26.130Z,99878.45
2019-03-01T23:37:57.410Z,99875.88
2019-03-01T23:40:28.570Z,99887.42
2019-03-01T23:42:59.710Z,99887.42
2019-03-01T23:45:30.860Z,99895.16
2019-03-01T23:48:02.151Z,99885.72
2019-03-01T23:50:34.946Z,99886.14
2019-03-01T23:53:06.350Z,99886.11
2019-03-01T23:55:37.719Z,99883.53
2019-03-01T23:58:08.950Z,99889.11
